Time;durP1;ratioP1;P1;durP2;ratioP2;P2;SDS_P1;SDS_P2;PMS_P1;PMS_P2;Temp;Humidity;BMP_temperature;BMP_pressure;BME280_temperature;BME280_humidity;BME280_pressure;Samples;Min_cycle;Max_cycle;Signal;HPM_P1;HPM_P2
2023/10/13 00:00:25;;;;;;;9.10;5.20;;;;;;;;;;5007560;28;20022;-72
2023/10/13 00:02:52;;;;;;;9.50;5.38;;;;;;;;;;4989904;28;20064;-72
2023/10/13 00:05:18;;;;;;;8.55;4.88;;;;;;;;;;4981351;28;20015;-71
2023/10/13 00:07:43;;;;;;;8.60;4.88;;;;;;;;;;4972634;28;20080;-71
2023/10/13 00:10:18;;;;;;;9.10;5.57;;;;;;;;;;4988864;28;20124;-71
2023/10/13 00:12:49;;;;;;;10.05;5.25;;;;;;;;;;4976091;28;20307;-72
2023/10/13 00:15:15;;;;;;;6.82;4.93;;;;;;;;;;4979821;28;20070;-72
2023/10/13 00:17:41;;;;;;;9.57;4.90;;;;;;;;;;4963435;28;20125;-73
2023/10/13 00:20:34;;;;;;;8.82;5.20;;;;;;;;;;4989221;28;20192;-73
2023/10/13 00:22:52;;;;;;;8.68;4.80;;;;;;;;;;4978669;28;20034;-72
2023/10/13 00:25:26;;;;;;;7.95;4.72;;;;;;;;;;4979749;28;20035;-72
2023/10/13 00:27:52;;;;;;;8.93;5.10;;;;;;;;;;4988562;28;20181;-72
2023/10/13 00:32:51;;;;;;;9.20;4.78;;;;;;;;;;4979182;28;20045;-72
2023/10/13 00:35:29;;;;;;;10.10;5.05;;;;;;;;;;4984608;28;20030;-72
2023/10/13 00:37:59;;;;;;;8.00;5.32;;;;;;;;;;4979728;28;20040;-72
2023/10/13 00:43:03;;;;;;;8.65;5.10;;;;;;;;;;4987626;28;20065;-72
2023/10/13 00:45:29;;;;;;;7.80;4.53;;;;;;;;;;4987897;28;20034;-72
2023/10/13 00:48:01;;;;;;;8.13;5.20;;;;;;;;;;4991085;28;20056;-72
2023/10/13 00:50:26;;;;;;;8.23;5.20;;;;;;;;;;4992905;28;20022;-72
2023/10/13 00:52:51;;;;;;;8.98;5.20;;;;;;;;;;4964770;28;20085;-72
2023/10/13 00:55:17;;;;;;;7.05;4.82;;;;;;;;;;4974345;28;20031;-72
2023/10/13 00:57:43;;;;;;;7.60;4.88;;;;;;;;;;4972334;28;20051;-72
2023/10/13 01:00:19;;;;;;;10.57;5.47;;;;;;;;;;4959980;28;20035;-72
2023/10/13 01:02:45;;;;;;;8.20;5.03;;;;;;;;;;4975633;28;20065;-72
2023/10/13 01:05:14;;;;;;;8.00;4.55;;;;;;;;;;4989091;28;20031;-72
2023/10/13 01:07:39;;;;;;;8.73;5.30;;;;;;;;;;4979107;28;20100;-73
2023/10/13 01:10:09;;;;;;;9.80;5.17;;;;;;;;;;5008127;28;20034;-72
2023/10/13 01:12:34;;;;;;;8.15;4.97;;;;;;;;;;4979666;28;20301;-72
2023/10/13 01:14:59;;;;;;;10.60;5.00;;;;;;;;;;4969733;28;20776;-72
2023/10/13 01:17:31;;;;;;;8.55;5.18;;;;;;;;;;4971533;28;20377;-73
2023/10/13 01:19:58;;;;;;;7.75;4.68;;;;;;;;;;4996788;28;20065;-73
2023/10/13 01:22:23;;;;;;;10.30;5.10;;;;;;;;;;4985380;28;20198;-73
2023/10/13 01:24:49;;;;;;;8.02;4.90;;;;;;;;;;4988245;28;20034;-73
2023/10/13 01:27:17;;;;;;;5.60;4.22;;;;;;;;;;4988590;28;20034;-72
2023/10/13 01:29:58;;;;;;;7.97;5.22;;;;;;;;;;4975121;28;20015;-73
2023/10/13 01:32:23;;;;;;;8.77;4.68;;;;;;;;;;4951360;28;20413;-72
2023/10/13 01:34:54;;;;;;;9.68;4.93;;;;;;;;;;4972978;28;20038;-73
2023/10/13 01:37:20;;;;;;;6.90;5.00;;;;;;;;;;4986298;28;20190;-73
2023/10/13 01:39:49;;;;;;;9.35;5.45;;;;;;;;;;4975282;28;20524;-73
2023/10/13 01:42:19;;;;;;;9.85;5.22;;;;;;;;;;4966784;28;20513;-73
2023/10/13 01:44:44;;;;;;;6.90;4.95;;;;;;;;;;4969841;28;20038;-73
2023/10/13 01:47:09;;;;;;;7.72;5.20;;;;;;;;;;4955424;28;20085;-73
2023/10/13 01:49:58;;;;;;;8.30;4.80;;;;;;;;;;4989547;28;20022;-73
2023/10/13 01:52:22;;;;;;;9.05;5.07;;;;;;;;;;4991644;28;20051;-72
2023/10/13 01:54:48;;;;;;;8.80;5.00;;;;;;;;;;4984769;28;20054;-72
2023/10/13 01:57:17;;;;;;;8.60;5.00;;;;;;;;;;4982809;28;20026;-72
2023/10/13 01:59:44;;;;;;;7.40;5.15;;;;;;;;;;4989689;28;20215;-72
2023/10/13 02:02:19;;;;;;;9.25;5.20;;;;;;;;;;4990503;28;20029;-72
2023/10/13 02:04:56;;;;;;;8.27;4.95;;;;;;;;;;4981153;28;20045;-72
2023/10/13 02:07:26;;;;;;;7.30;5.38;;;;;;;;;;4960890;28;20452;-73
2023/10/13 02:09:54;;;;;;;8.10;5.05;;;;;;;;;;4987656;28;20039;-72
2023/10/13 02:12:25;;;;;;;8.38;5.35;;;;;;;;;;4986186;28;20088;-72
2023/10/13 02:14:50;;;;;;;10.55;5.28;;;;;;;;;;4983422;28;20118;-72
2023/10/13 02:17:16;;;;;;;9.07;5.30;;;;;;;;;;4967555;28;20197;-72
2023/10/13 02:19:45;;;;;;;9.50;5.00;;;;;;;;;;4986588;28;20291;-72
2023/10/13 02:22:11;;;;;;;9.30;5.05;;;;;;;;;;4983936;28;20416;-72
2023/10/13 02:24:39;;;;;;;8.52;5.05;;;;;;;;;;4981419;28;20042;-71
2023/10/13 02:27:13;;;;;;;8.73;5.20;;;;;;;;;;4980993;28;20093;-72
2023/10/13 02:29:39;;;;;;;8.07;4.90;;;;;;;;;;4978637;28;20035;-72
2023/10/13 02:32:05;;;;;;;7.95;4.93;;;;;;;;;;4983735;28;20047;-72
2023/10/13 02:34:31;;;;;;;7.00;4.97;;;;;;;;;;4976077;28;20098;-72
2023/10/13 02:36:56;;;;;;;9.23;5.10;;;;;;;;;;4986183;28;20054;-72
2023/10/13 02:39:27;;;;;;;7.53;4.87;;;;;;;;;;4992684;28;20489;-71
2023/10/13 02:41:56;;;;;;;8.02;4.72;;;;;;;;;;5004533;28;20367;-72
2023/10/13 02:44:28;;;;;;;6.53;4.88;;;;;;;;;;4974983;28;20053;-72
2023/10/13 02:46:55;;;;;;;7.90;4.97;;;;;;;;;;4972348;28;20041;-71
2023/10/13 02:49:21;;;;;;;10.02;5.30;;;;;;;;;;4984697;28;20030;-72
2023/10/13 02:51:47;;;;;;;8.40;5.15;;;;;;;;;;4965863;28;20049;-72
2023/10/13 02:54:18;;;;;;;7.60;4.50;;;;;;;;;;4947615;28;20440;-72
2023/10/13 02:57:16;;;;;;;9.30;5.15;;;;;;;;;;4953421;28;20334;-72
2023/10/13 02:59:34;;;;;;;7.97;4.40;;;;;;;;;;4966062;28;20049;-72
2023/10/13 03:02:00;;;;;;;8.87;5.20;;;;;;;;;;4986052;28;20030;-72
2023/10/13 03:04:27;;;;;;;7.35;5.05;;;;;;;;;;4957641;28;20678;-72
2023/10/13 03:06:52;;;;;;;6.50;4.80;;;;;;;;;;4984092;28;20527;-72
2023/10/13 03:09:18;;;;;;;9.55;5.20;;;;;;;;;;4985729;28;20034;-72
2023/10/13 03:11:49;;;;;;;10.20;4.85;;;;;;;;;;4987363;28;20042;-72
2023/10/13 03:14:26;;;;;;;6.53;4.75;;;;;;;;;;4974958;28;20103;-72
2023/10/13 03:16:52;;;;;;;6.47;4.60;;;;;;;;;;4974015;28;20042;-72
2023/10/13 03:19:19;;;;;;;7.10;4.88;;;;;;;;;;4986830;28;20519;-73
2023/10/13 03:21:46;;;;;;;8.73;5.05;;;;;;;;;;5005809;28;20112;-72
2023/10/13 03:24:13;;;;;;;6.88;4.53;;;;;;;;;;4973298;28;20043;-72
2023/10/13 03:26:44;;;;;;;8.35;4.65;;;;;;;;;;4959427;28;20035;-72
2023/10/13 03:29:13;;;;;;;7.72;4.80;;;;;;;;;;4982942;28;20058;-72
2023/10/13 03:31:39;;;;;;;6.97;4.97;;;;;;;;;;4986560;28;20035;-73
2023/10/13 03:34:12;;;;;;;9.10;5.22;;;;;;;;;;4976638;28;20030;-72
2023/10/13 03:36:57;;;;;;;9.32;5.05;;;;;;;;;;4969696;28;20066;-72
2023/10/13 03:39:29;;;;;;;7.72;5.05;;;;;;;;;;4981829;28;20520;-72
2023/10/13 03:41:55;;;;;;;7.47;4.90;;;;;;;;;;4971568;28;20039;-72
2023/10/13 03:44:21;;;;;;;9.93;5.00;;;;;;;;;;4960030;28;20029;-72
2023/10/13 03:46:47;;;;;;;11.38;5.32;;;;;;;;;;4982602;28;20047;-72
2023/10/13 03:49:14;;;;;;;10.82;5.45;;;;;;;;;;4989075;28;20551;-72
2023/10/13 03:51:40;;;;;;;8.27;5.05;;;;;;;;;;4984662;28;20053;-72
2023/10/13 03:54:08;;;;;;;7.13;4.57;;;;;;;;;;4935465;28;20122;-72
2023/10/13 03:56:40;;;;;;;8.18;5.00;;;;;;;;;;4964178;28;20418;-73
2023/10/13 03:59:35;;;;;;;8.65;4.97;;;;;;;;;;4985438;28;20045;-72
2023/10/13 04:04:31;;;;;;;9.57;5.07;;;;;;;;;;4977629;28;20092;-72
2023/10/13 04:17:23;;;;;;;7.18;4.90;;;;;;;;;;4975537;28;20092;-72
2023/10/13 04:25:52;;;;;;;6.72;4.75;;;;;;;;;;4963069;28;20035;-72
2023/10/13 04:28:37;;;;;;;8.63;5.00;;;;;;;;;;4983087;28;20042;-73
2023/10/13 04:31:11;;;;;;;7.75;4.65;;;;;;;;;;4984653;28;20049;-72
2023/10/13 04:33:56;;;;;;;10.07;5.68;;;;;;;;;;4965674;28;20042;-73
2023/10/13 04:41:57;;;;;;;9.90;5.20;;;;;;;;;;4976620;28;20049;-72
2023/10/13 04:47:09;;;;;;;8.65;5.03;;;;;;;;;;4986740;28;20041;-72
2023/10/13 04:57:34;;;;;;;8.13;4.93;;;;;;;;;;4987254;28;20042;-72
2023/10/13 05:49:20;;;;;;;7.38;4.72;;;;;;;;;;4972901;28;20049;-73
2023/10/13 06:29:33;;;;;;;10.15;4.70;;;;;;;;;;4971337;28;20050;-75
2023/10/13 06:32:01;;;;;;;16.03;4.30;;;;;;;;;;4992741;28;20006;-74
2023/10/13 06:34:37;;;;;;;11.80;5.15;;;;;;;;;;4987575;28;20357;-73
2023/10/13 06:37:21;;;;;;;9.70;4.53;;;;;;;;;;4959421;28;20090;-74
2023/10/13 06:39:47;;;;;;;11.30;4.63;;;;;;;;;;4946442;28;20035;-74
2023/10/13 06:42:12;;;;;;;9.93;4.43;;;;;;;;;;4937998;28;20627;-74
2023/10/13 06:44:39;;;;;;;13.37;4.50;;;;;;;;;;4968463;28;20047;-74
2023/10/13 06:47:05;;;;;;;11.93;4.90;;;;;;;;;;4977305;28;20434;-75
2023/10/13 06:49:32;;;;;;;8.90;4.43;;;;;;;;;;4960720;28;20035;-75
2023/10/13 06:52:00;;;;;;;7.57;4.18;;;;;;;;;;4982679;28;20049;-74
2023/10/13 06:54:28;;;;;;;10.38;4.55;;;;;;;;;;4979840;28;20045;-74
2023/10/13 06:56:53;;;;;;;9.75;4.43;;;;;;;;;;4970411;28;20109;-75
2023/10/13 06:59:19;;;;;;;7.30;4.18;;;;;;;;;;4958832;28;20035;-74
2023/10/13 07:01:44;;;;;;;7.60;4.30;;;;;;;;;;4967484;28;20039;-73
2023/10/13 07:04:13;;;;;;;8.63;4.00;;;;;;;;;;4980337;28;20050;-72
2023/10/13 07:06:48;;;;;;;8.95;4.10;;;;;;;;;;4958538;28;20030;-73
2023/10/13 07:12:02;;;;;;;8.65;4.07;;;;;;;;;;4959165;28;20102;-80
2023/10/13 07:14:28;;;;;;;7.55;3.88;;;;;;;;;;4965333;28;20066;-81
2023/10/13 07:16:59;;;;;;;7.63;4.35;;;;;;;;;;4975512;28;20101;-81
2023/10/13 07:19:28;;;;;;;6.57;4.05;;;;;;;;;;4964930;28;20039;-82
2023/10/13 07:21:59;;;;;;;8.20;4.65;;;;;;;;;;4983452;28;20438;-83
2023/10/13 07:24:31;;;;;;;6.45;4.13;;;;;;;;;;4970383;28;20055;-80
2023/10/13 07:27:03;;;;;;;7.63;4.30;;;;;;;;;;4984405;28;20046;-81
2023/10/13 07:29:28;;;;;;;7.28;4.55;;;;;;;;;;4991069;28;20041;-81
2023/10/13 07:31:53;;;;;;;8.02;4.70;;;;;;;;;;4985158;28;20074;-83
2023/10/13 07:34:26;;;;;;;8.88;4.32;;;;;;;;;;4985768;28;20775;-83
2023/10/13 07:37:00;;;;;;;8.07;4.78;;;;;;;;;;4983279;28;20062;-82
2023/10/13 07:39:33;;;;;;;8.07;4.80;;;;;;;;;;4977174;28;20062;-80
2023/10/13 07:42:05;;;;;;;6.22;4.43;;;;;;;;;;4984946;28;20321;-81
2023/10/13 07:44:34;;;;;;;7.25;4.53;;;;;;;;;;4972050;28;20404;-81
2023/10/13 07:46:59;;;;;;;8.30;4.40;;;;;;;;;;4970543;28;20050;-80
2023/10/13 07:49:31;;;;;;;6.38;4.38;;;;;;;;;;4986199;28;20105;-81
2023/10/13 07:52:00;;;;;;;7.10;4.32;;;;;;;;;;4990051;28;20460;-80
2023/10/13 07:54:26;;;;;;;6.53;4.13;;;;;;;;;;4985311;28;20062;-80
2023/10/13 07:56:54;;;;;;;6.57;4.40;;;;;;;;;;4987214;28;20073;-80
2023/10/13 07:59:22;;;;;;;7.28;4.30;;;;;;;;;;4988120;28;20087;-80
2023/10/13 08:01:47;;;;;;;9.77;4.40;;;;;;;;;;4982300;28;20609;-81
2023/10/13 08:04:14;;;;;;;8.85;4.80;;;;;;;;;;4985184;28;20125;-80
2023/10/13 08:06:43;;;;;;;7.43;4.28;;;;;;;;;;4986836;28;20089;-81
2023/10/13 08:09:09;;;;;;;7.70;4.90;;;;;;;;;;4979244;28;20149;-80
2023/10/13 08:11:34;;;;;;;7.22;4.65;;;;;;;;;;4967601;28;20059;-80
2023/10/13 08:14:10;;;;;;;8.32;4.50;;;;;;;;;;4973756;28;20085;-80
2023/10/13 08:17:35;;;;;;;8.55;4.90;;;;;;;;;;4983490;28;20050;-82
2023/10/13 08:19:49;;;;;;;8.80;4.72;;;;;;;;;;4950737;28;20464;-82
2023/10/13 08:48:07;;;;;;;12.98;6.97;;;;;;;;;;4957062;28;20043;-74
2023/10/13 08:51:10;;;;;;;13.75;6.45;;;;;;;;;;4956953;28;20110;-74
2023/10/13 08:59:04;;;;;;;8.40;5.70;;;;;;;;;;4963919;28;20121;-75
2023/10/13 09:01:13;;;;;;;12.75;6.47;;;;;;;;;;4958906;28;20031;-74
2023/10/13 09:03:42;;;;;;;12.70;6.38;;;;;;;;;;4954800;28;20043;-74
2023/10/13 09:06:14;;;;;;;12.95;7.00;;;;;;;;;;4958406;28;20054;-75
2023/10/13 09:11:27;;;;;;;24.70;17.05;;;;;;;;;;4974878;28;20451;-74
2023/10/13 09:13:52;;;;;;;34.10;21.15;;;;;;;;;;4957519;28;20046;-74
2023/10/13 09:17:07;;;;;;;30.90;21.10;;;;;;;;;;4957802;28;20046;-74
2023/10/13 09:19:06;;;;;;;29.58;20.77;;;;;;;;;;4954266;28;20041;-74
2023/10/13 09:24:51;;;;;;;29.75;20.05;;;;;;;;;;4957244;28;20710;-74
2023/10/13 09:26:53;;;;;;;29.30;18.95;;;;;;;;;;4953624;28;20528;-72
2023/10/13 09:29:18;;;;;;;28.77;17.80;;;;;;;;;;4959060;28;20042;-73
2023/10/13 09:31:48;;;;;;;23.67;16.52;;;;;;;;;;4961034;28;20039;-72
2023/10/13 09:34:29;;;;;;;24.20;15.95;;;;;;;;;;4957850;28;20066;-74
2023/10/13 09:36:57;;;;;;;22.67;15.90;;;;;;;;;;4967528;28;20053;-75
2023/10/13 09:39:40;;;;;;;20.10;15.25;;;;;;;;;;4973268;28;20035;-75
2023/10/13 09:42:10;;;;;;;21.85;14.65;;;;;;;;;;4959045;28;20133;-74
2023/10/13 09:44:37;;;;;;;;;;;;;;;;;;4957147;28;20072;-73
2023/10/13 09:47:09;;;;;;;19.80;12.82;;;;;;;;;;4973656;28;20194;-75
2023/10/13 09:49:44;;;;;;;19.67;12.88;;;;;;;;;;4973051;28;20584;-74
2023/10/13 09:52:18;;;;;;;20.23;13.02;;;;;;;;;;4974082;28;20402;-76
2023/10/13 09:54:47;;;;;;;19.25;11.50;;;;;;;;;;4957491;28;20038;-77
2023/10/13 09:57:16;;;;;;;17.27;10.13;;;;;;;;;;4956489;28;20527;-77
2023/10/13 09:59:49;;;;;;;17.90;10.85;;;;;;;;;;4972510;28;20041;-78
2023/10/13 10:02:20;;;;;;;16.98;10.43;;;;;;;;;;4968776;28;20071;-73
2023/10/13 10:04:51;;;;;;;17.83;10.38;;;;;;;;;;4952322;28;20051;-72
2023/10/13 10:07:28;;;;;;;16.77;9.15;;;;;;;;;;4954096;28;20066;-72
2023/10/13 10:09:56;;;;;;;17.77;9.60;;;;;;;;;;4952421;28;20501;-73
2023/10/13 10:12:40;;;;;;;15.18;9.32;;;;;;;;;;4953425;28;20124;-72
2023/10/13 10:15:33;;;;;;;16.73;8.43;;;;;;;;;;4953522;28;20030;-74
2023/10/13 10:18:00;;;;;;;15.13;8.43;;;;;;;;;;4955421;28;20031;-73
2023/10/13 10:21:15;;;;;;;14.50;8.32;;;;;;;;;;4965811;28;20065;-72
2023/10/13 10:23:28;;;;;;;13.87;7.53;;;;;;;;;;4966140;28;20030;-73
2023/10/13 10:26:08;;;;;;;15.27;7.78;;;;;;;;;;4956023;28;20817;-72
2023/10/13 10:28:37;;;;;;;14.32;7.22;;;;;;;;;;4972351;28;20324;-73
2023/10/13 10:31:09;;;;;;;15.65;7.13;;;;;;;;;;4972822;28;20042;-72
2023/10/13 10:33:34;;;;;;;15.38;7.20;;;;;;;;;;4969894;28;20114;-72
2023/10/13 10:36:00;;;;;;;13.67;7.10;;;;;;;;;;4970580;28;20124;-73
2023/10/13 10:38:34;;;;;;;12.85;7.10;;;;;;;;;;4935375;28;20294;-72
2023/10/13 10:41:06;;;;;;;14.75;7.00;;;;;;;;;;4954774;28;20063;-73
2023/10/13 10:43:45;;;;;;;15.82;6.65;;;;;;;;;;4957065;28;20042;-73
2023/10/13 10:46:13;;;;;;;10.30;5.75;;;;;;;;;;4955353;28;20023;-72
2023/10/13 10:48:42;;;;;;;11.13;5.72;;;;;;;;;;4954822;28;20038;-73
2023/10/13 10:51:43;;;;;;;10.95;5.85;;;;;;;;;;4955053;28;20540;-72
2023/10/13 10:54:11;;;;;;;11.13;5.85;;;;;;;;;;4950178;28;20069;-72
2023/10/13 10:56:36;;;;;;;9.52;5.95;;;;;;;;;;4954997;28;20043;-71
2023/10/13 10:59:04;;;;;;;10.27;5.65;;;;;;;;;;4956638;28;20039;-73
2023/10/13 11:01:33;;;;;;;10.05;5.45;;;;;;;;;;4957478;28;20050;-72
2023/10/13 11:04:08;;;;;;;10.00;5.05;;;;;;;;;;4967714;28;20026;-73
2023/10/13 11:06:38;;;;;;;10.57;5.50;;;;;;;;;;4957787;28;20030;-72
2023/10/13 11:09:04;;;;;;;10.07;5.18;;;;;;;;;;4967074;28;20038;-72
2023/10/13 11:11:35;;;;;;;9.50;5.00;;;;;;;;;;4958246;28;20039;-73
2023/10/13 11:14:22;;;;;;;7.38;4.80;;;;;;;;;;4993013;28;20046;-71
2023/10/13 11:16:50;;;;;;;8.75;5.03;;;;;;;;;;4951546;28;20043;-73
2023/10/13 11:19:16;;;;;;;8.98;5.35;;;;;;;;;;4993445;28;20046;-73
2023/10/13 11:21:42;;;;;;;8.85;5.10;;;;;;;;;;5000804;28;20679;-73
2023/10/13 11:24:11;;;;;;;8.10;4.50;;;;;;;;;;4971286;28;20039;-72
2023/10/13 11:26:47;;;;;;;10.20;4.90;;;;;;;;;;4961513;28;20378;-73
2023/10/13 11:29:13;;;;;;;11.95;5.20;;;;;;;;;;4980687;28;20042;-73
2023/10/13 11:31:38;;;;;;;6.90;4.20;;;;;;;;;;4986477;28;20023;-72
2023/10/13 11:34:05;;;;;;;9.10;4.27;;;;;;;;;;4982230;28;20812;-73
2023/10/13 11:36:33;;;;;;;7.88;4.43;;;;;;;;;;4983980;28;20265;-73
2023/10/13 11:38:58;;;;;;;9.85;4.20;;;;;;;;;;4982857;28;20030;-75
2023/10/13 11:41:23;;;;;;;6.77;4.20;;;;;;;;;;4984924;28;20038;-73
2023/10/13 11:43:52;;;;;;;6.70;3.63;;;;;;;;;;4961806;28;20293;-73
2023/10/13 11:49:13;;;;;;;6.55;3.33;;;;;;;;;;4984970;28;20062;-73
2023/10/13 11:51:48;;;;;;;7.68;3.60;;;;;;;;;;4975496;28;20042;-74
2023/10/13 11:54:17;;;;;;;9.70;3.58;;;;;;;;;;4979864;28;20434;-72
2023/10/13 11:56:43;;;;;;;6.88;3.53;;;;;;;;;;4973970;28;20047;-72
2023/10/13 11:59:16;;;;;;;6.63;3.08;;;;;;;;;;4971252;28;20046;-78
2023/10/13 12:04:51;;;;;;;8.80;3.30;;;;;;;;;;4975545;28;20104;-77
2023/10/13 12:09:52;;;;;;;5.32;2.35;;;;;;;;;;4980410;28;20039;-77
2023/10/13 12:12:17;;;;;;;6.93;2.85;;;;;;;;;;4984167;28;20031;-78
2023/10/13 12:14:52;;;;;;;6.47;3.27;;;;;;;;;;4985473;28;20050;-77
2023/10/13 12:17:24;;;;;;;5.22;2.45;;;;;;;;;;4983221;28;20894;-78
2023/10/13 12:19:51;;;;;;;6.28;2.50;;;;;;;;;;4962844;28;20038;-77
2023/10/13 12:22:25;;;;;;;6.50;2.42;;;;;;;;;;4988916;28;20026;-77
2023/10/13 12:24:53;;;;;;;5.25;2.55;;;;;;;;;;4958256;28;20121;-78
2023/10/13 12:27:18;;;;;;;5.57;2.45;;;;;;;;;;4988475;28;20498;-77
2023/10/13 12:29:47;;;;;;;6.57;2.40;;;;;;;;;;4963021;28;20090;-78
2023/10/13 12:32:12;;;;;;;5.82;2.40;;;;;;;;;;4969418;28;20042;-78
2023/10/13 12:51:40;;;;;;;5.78;2.45;;;;;;;;;;4977186;28;20037;-77
2023/10/13 12:54:06;;;;;;;2.88;1.88;;;;;;;;;;4968799;28;20041;-78
2023/10/13 12:56:32;;;;;;;5.35;2.08;;;;;;;;;;4982913;28;20121;-78
2023/10/13 12:58:57;;;;;;;4.40;2.25;;;;;;;;;;4969097;28;20117;-78
2023/10/13 13:01:24;;;;;;;4.07;2.23;;;;;;;;;;4977830;28;20300;-76
2023/10/13 13:03:49;;;;;;;5.47;2.15;;;;;;;;;;4978027;28;20294;-77
2023/10/13 13:06:18;;;;;;;3.80;2.00;;;;;;;;;;4969929;28;20038;-77
2023/10/13 13:08:44;;;;;;;4.85;2.42;;;;;;;;;;4979685;28;20050;-77
2023/10/13 13:11:10;;;;;;;4.95;2.20;;;;;;;;;;4983610;28;20413;-77
2023/10/13 13:13:35;;;;;;;5.35;2.20;;;;;;;;;;4980830;28;20034;-78
2023/10/13 13:16:00;;;;;;;3.07;1.90;;;;;;;;;;4995396;28;20041;-78
2023/10/13 13:18:26;;;;;;;4.97;2.17;;;;;;;;;;4985572;28;20312;-78
2023/10/13 13:20:54;;;;;;;4.73;2.03;;;;;;;;;;4982282;28;20689;-78
2023/10/13 13:23:21;;;;;;;7.10;2.25;;;;;;;;;;4977904;28;20328;-79
2023/10/13 13:25:46;;;;;;;5.28;2.22;;;;;;;;;;4976061;28;20031;-77
2023/10/13 13:28:12;;;;;;;6.13;2.50;;;;;;;;;;4979134;28;20524;-77
2023/10/13 13:30:37;;;;;;;6.47;2.25;;;;;;;;;;4977300;28;20073;-77
2023/10/13 13:33:10;;;;;;;6.28;2.28;;;;;;;;;;4976115;28;20494;-78
2023/10/13 13:35:36;;;;;;;5.28;2.28;;;;;;;;;;4989781;28;20042;-78
2023/10/13 13:38:09;;;;;;;6.10;2.40;;;;;;;;;;4984752;28;20050;-77
2023/10/13 13:40:36;;;;;;;7.45;2.22;;;;;;;;;;4986859;28;20123;-76
2023/10/13 13:43:01;;;;;;;5.65;2.22;;;;;;;;;;4986018;28;20038;-77
2023/10/13 13:45:29;;;;;;;6.57;2.53;;;;;;;;;;4983278;28;20500;-79
2023/10/13 13:47:55;;;;;;;5.43;2.17;;;;;;;;;;4985750;28;20819;-77
2023/10/13 13:50:25;;;;;;;5.30;2.40;;;;;;;;;;4963688;28;20158;-76
2023/10/13 13:52:52;;;;;;;6.32;2.38;;;;;;;;;;4968754;28;20031;-75
2023/10/13 13:55:17;;;;;;;5.50;2.45;;;;;;;;;;4964191;28;20034;-73
2023/10/13 13:57:46;;;;;;;6.05;2.65;;;;;;;;;;4985726;28;20038;-73
2023/10/13 14:00:16;;;;;;;6.43;2.50;;;;;;;;;;4986610;28;20133;-73
2023/10/13 14:02:47;;;;;;;6.43;2.13;;;;;;;;;;4982460;28;20481;-73
2023/10/13 14:05:15;;;;;;;6.55;2.25;;;;;;;;;;4983016;28;20038;-74
2023/10/13 14:07:41;;;;;;;5.68;2.40;;;;;;;;;;4984578;28;20043;-73
2023/10/13 14:10:07;;;;;;;5.47;2.67;;;;;;;;;;4967735;28;20030;-74
2023/10/13 14:12:50;;;;;;;6.45;2.65;;;;;;;;;;4979662;28;20104;-74
2023/10/13 14:15:23;;;;;;;4.63;2.40;;;;;;;;;;4966250;28;20132;-73
2023/10/13 14:17:49;;;;;;;5.80;2.42;;;;;;;;;;4966243;28;20062;-73
2023/10/13 14:20:20;;;;;;;5.83;2.60;;;;;;;;;;4962724;28;20149;-73
2023/10/13 14:22:49;;;;;;;5.40;2.70;;;;;;;;;;4978758;28;20491;-73
2023/10/13 14:25:14;;;;;;;6.50;2.67;;;;;;;;;;4966961;28;20042;-73
2023/10/13 14:27:42;;;;;;;4.47;2.45;;;;;;;;;;4966824;28;20055;-72
2023/10/13 14:30:08;;;;;;;5.35;2.67;;;;;;;;;;4947584;28;20061;-72
2023/10/13 14:32:40;;;;;;;4.70;2.60;;;;;;;;;;4967162;28;20034;-73
2023/10/13 14:35:14;;;;;;;7.50;2.75;;;;;;;;;;4985531;28;20150;-75
2023/10/13 14:37:39;;;;;;;7.20;2.50;;;;;;;;;;4957645;28;20098;-73
2023/10/13 14:40:05;;;;;;;7.10;2.60;;;;;;;;;;4984320;28;20951;-73
2023/10/13 14:42:35;;;;;;;6.85;2.58;;;;;;;;;;4985540;28;20284;-73
2023/10/13 14:45:00;;;;;;;6.88;2.60;;;;;;;;;;4962337;28;20031;-74
2023/10/13 14:47:26;;;;;;;3.45;2.38;;;;;;;;;;4977854;28;20053;-74
2023/10/13 14:50:03;;;;;;;5.90;2.70;;;;;;;;;;4951721;28;20585;-74
2023/10/13 14:52:31;;;;;;;4.90;2.00;;;;;;;;;;4984890;28;20042;-73
2023/10/13 14:54:57;;;;;;;5.10;2.33;;;;;;;;;;4982161;28;20584;-74
2023/10/13 14:57:24;;;;;;;4.68;2.50;;;;;;;;;;4994820;28;20065;-74
2023/10/13 14:59:52;;;;;;;6.03;2.30;;;;;;;;;;4969590;28;20145;-74
2023/10/13 15:02:17;;;;;;;3.97;2.50;;;;;;;;;;4977598;28;20042;-74
2023/10/13 15:04:42;;;;;;;4.97;2.42;;;;;;;;;;4965248;28;20057;-74
2023/10/13 15:07:07;;;;;;;4.28;2.20;;;;;;;;;;4975784;28;20084;-73
2023/10/13 15:09:33;;;;;;;8.60;2.88;;;;;;;;;;4970062;28;20137;-73
2023/10/13 15:11:58;;;;;;;5.20;2.77;;;;;;;;;;4977514;28;20059;-73
2023/10/13 15:14:24;;;;;;;6.10;2.45;;;;;;;;;;4951924;28;20290;-73
2023/10/13 15:16:49;;;;;;;5.20;2.15;;;;;;;;;;4955455;28;20062;-74
2023/10/13 15:19:16;;;;;;;6.82;2.55;;;;;;;;;;4961303;28;20118;-74
2023/10/13 15:21:41;;;;;;;8.85;2.70;;;;;;;;;;4968773;28;20062;-73
2023/10/13 15:24:21;;;;;;;8.93;3.00;;;;;;;;;;4942431;28;20527;-74
2023/10/13 15:26:49;;;;;;;11.05;3.20;;;;;;;;;;4954926;28;20090;-73
2023/10/13 15:29:18;;;;;;;9.73;3.10;;;;;;;;;;4981081;28;20050;-73
2023/10/13 15:32:04;;;;;;;8.03;3.27;;;;;;;;;;4970454;28;20039;-73
2023/10/13 15:34:29;;;;;;;9.15;3.10;;;;;;;;;;4961547;28;20038;-73
2023/10/13 15:36:55;;;;;;;7.60;3.00;;;;;;;;;;4984117;28;20042;-74
2023/10/13 15:39:28;;;;;;;9.38;3.17;;;;;;;;;;4987534;28;20317;-73
2023/10/13 15:41:53;;;;;;;8.45;3.40;;;;;;;;;;4970167;28;20042;-73
2023/10/13 15:44:20;;;;;;;9.77;3.63;;;;;;;;;;4969292;28;20427;-73
2023/10/13 15:46:49;;;;;;;11.52;4.00;;;;;;;;;;4969440;28;20130;-77
2023/10/13 15:49:14;;;;;;;9.73;3.80;;;;;;;;;;4974705;28;20070;-74
2023/10/13 15:51:39;;;;;;;9.77;3.78;;;;;;;;;;4985623;28;20038;-78
2023/10/13 15:54:10;;;;;;;11.35;3.70;;;;;;;;;;4995589;28;20038;-71
2023/10/13 15:56:39;;;;;;;10.40;4.63;;;;;;;;;;4993009;28;20119;-70
2023/10/13 15:59:07;;;;;;;14.85;4.68;;;;;;;;;;4994903;28;20034;-70
2023/10/13 16:01:33;;;;;;;14.48;5.00;;;;;;;;;;4986515;28;20042;-70
2023/10/13 16:03:59;;;;;;;16.60;5.18;;;;;;;;;;4960034;28;20039;-72
2023/10/13 16:06:25;;;;;;;14.13;5.25;;;;;;;;;;4970957;28;20039;-73
2023/10/13 16:08:51;;;;;;;15.35;5.47;;;;;;;;;;4975866;28;20054;-74
2023/10/13 16:11:19;;;;;;;10.00;4.70;;;;;;;;;;4982837;28;20094;-73
2023/10/13 16:13:45;;;;;;;16.75;4.97;;;;;;;;;;4979492;28;20165;-70
2023/10/13 16:16:16;;;;;;;14.45;5.70;;;;;;;;;;4976734;28;20581;-73
2023/10/13 16:18:43;;;;;;;12.63;5.05;;;;;;;;;;4962725;28;20047;-72
2023/10/13 16:21:09;;;;;;;13.60;5.07;;;;;;;;;;4957580;28;20035;-72
2023/10/13 16:23:34;;;;;;;12.38;4.82;;;;;;;;;;4957727;28;20066;-72
2023/10/13 16:26:02;;;;;;;14.70;4.80;;;;;;;;;;4958237;28;20045;-72
2023/10/13 16:28:27;;;;;;;11.13;5.30;;;;;;;;;;4959149;28;20384;-72
2023/10/13 16:30:55;;;;;;;10.13;4.45;;;;;;;;;;4958988;28;20030;-73
2023/10/13 16:33:21;;;;;;;12.70;4.57;;;;;;;;;;4957126;28;20122;-73
2023/10/13 16:35:46;;;;;;;17.20;5.07;;;;;;;;;;4957671;28;20165;-72
2023/10/13 16:38:11;;;;;;;11.60;4.85;;;;;;;;;;4960586;28;20105;-72
2023/10/13 16:40:40;;;;;;;12.13;4.70;;;;;;;;;;4957597;28;20039;-70
2023/10/13 16:43:07;;;;;;;10.63;4.47;;;;;;;;;;4956705;28;20345;-71
2023/10/13 16:45:35;;;;;;;12.38;4.00;;;;;;;;;;4957049;28;20126;-71
2023/10/13 16:48:00;;;;;;;11.45;4.75;;;;;;;;;;4975363;28;20081;-70
2023/10/13 16:50:26;;;;;;;13.20;4.18;;;;;;;;;;4977839;28;20470;-71
2023/10/13 16:52:51;;;;;;;11.02;4.03;;;;;;;;;;4975886;28;20253;-76
2023/10/13 16:55:20;;;;;;;12.55;4.70;;;;;;;;;;4973156;28;20513;-70
2023/10/13 16:57:51;;;;;;;12.35;4.03;;;;;;;;;;4955748;28;20090;-71
2023/10/13 17:00:18;;;;;;;13.50;4.55;;;;;;;;;;4972933;28;20026;-73
2023/10/13 17:02:45;;;;;;;11.45;4.40;;;;;;;;;;4960451;28;20018;-73
2023/10/13 17:05:12;;;;;;;13.63;4.55;;;;;;;;;;4957861;28;20010;-73
2023/10/13 17:07:38;;;;;;;10.70;4.65;;;;;;;;;;4958595;28;20042;-72
2023/10/13 17:10:03;;;;;;;10.10;3.90;;;;;;;;;;4975478;28;20030;-68
2023/10/13 17:12:29;;;;;;;8.98;4.05;;;;;;;;;;4976206;28;20034;-71
2023/10/13 17:14:57;;;;;;;7.85;3.88;;;;;;;;;;4973714;28;21066;-71
2023/10/13 17:17:23;;;;;;;12.90;4.25;;;;;;;;;;4975065;28;20253;-70
2023/10/13 17:19:49;;;;;;;13.82;4.32;;;;;;;;;;4974703;28;20516;-71
2023/10/13 17:22:15;;;;;;;12.18;4.00;;;;;;;;;;4974824;28;20034;-72
2023/10/13 17:24:40;;;;;;;11.50;4.63;;;;;;;;;;4974870;28;20053;-73
2023/10/13 17:27:07;;;;;;;12.53;4.30;;;;;;;;;;4974933;28;20121;-71
2023/10/13 17:29:35;;;;;;;8.23;4.28;;;;;;;;;;4975637;28;20305;-70
2023/10/13 17:32:02;;;;;;;10.80;4.72;;;;;;;;;;4956155;28;20061;-70
2023/10/13 17:34:28;;;;;;;9.88;4.40;;;;;;;;;;4970520;28;20039;-69
2023/10/13 17:36:56;;;;;;;10.48;3.63;;;;;;;;;;4955012;28;20074;-70
2023/10/13 17:39:21;;;;;;;7.82;3.80;;;;;;;;;;4956970;28;20063;-70
2023/10/13 17:41:48;;;;;;;9.93;4.25;;;;;;;;;;4957579;28;20152;-70
2023/10/13 17:44:14;;;;;;;8.98;3.88;;;;;;;;;;4972120;28;20046;-71
2023/10/13 17:46:39;;;;;;;8.95;4.18;;;;;;;;;;4974182;28;20054;-73
2023/10/13 17:49:05;;;;;;;8.77;4.07;;;;;;;;;;4966894;28;20441;-71
2023/10/13 17:51:30;;;;;;;8.77;3.97;;;;;;;;;;4952070;28;20636;-72
2023/10/13 17:53:57;;;;;;;8.02;3.58;;;;;;;;;;4946897;28;20034;-70
2023/10/13 17:56:22;;;;;;;9.55;3.67;;;;;;;;;;4971785;28;20070;-71
2023/10/13 17:58:51;;;;;;;7.43;3.72;;;;;;;;;;4973374;28;20407;-71
2023/10/13 18:01:19;;;;;;;9.27;3.28;;;;;;;;;;4972374;28;20038;-70